sensor_id;sensor_type;location;lat;lon;timestamp;temperature;humidity
17740;DHT22;8990;33.226;-97.150;2023-07-13T00:01:27;38.40;99.90
17740;DHT22;8990;33.226;-97.150;2023-07-13T00:03:58;38.40;99.90
17740;DHT22;8990;33.226;-97.150;2023-07-13T00:06:28;38.40;99.90
17740;DHT22;8990;33.226;-97.150;2023-07-13T00:08:57;38.40;99.90
17740;DHT22;8990;33.226;-97.150;2023-07-13T00:11:26;38.40;99.90
17740;DHT22;8990;33.226;-97.150;2023-07-13T00:13:55;38.30;99.90
17740;DHT22;8990;33.226;-97.150;2023-07-13T00:16:24;38.30;99.90
17740;DHT22;8990;33.226;-97.150;2023-07-13T00:18:52;38.30;99.90
17740;DHT22;8990;33.226;-97.150;2023-07-13T00:21:23;38.30;99.90
17740;DHT22;8990;33.226;-97.150;2023-07-13T00:23:52;38.20;99.90
17740;DHT22;8990;33.226;-97.150;2023-07-13T00:26:21;38.20;99.90
17740;DHT22;8990;33.226;-97.150;2023-07-13T00:28:50;38.20;99.90
17740;DHT22;8990;33.226;-97.150;2023-07-13T00:31:19;38.10;99.90
17740;DHT22;8990;33.226;-97.150;2023-07-13T00:33:48;38.10;99.90
17740;DHT22;8990;33.226;-97.150;2023-07-13T00:36:17;38.10;99.90
17740;DHT22;8990;33.226;-97.150;2023-07-13T00:38:48;38.10;99.90
17740;DHT22;8990;33.226;-97.150;2023-07-13T00:41:17;38.00;99.90
17740;DHT22;8990;33.226;-97.150;2023-07-13T00:43:46;37.90;99.90
17740;DHT22;8990;33.226;-97.150;2023-07-13T00:46:25;37.80;99.90
17740;DHT22;8990;33.226;-97.150;2023-07-13T00:48:57;37.80;99.90
17740;DHT22;8990;33.226;-97.150;2023-07-13T00:51:31;37.70;99.90
17740;DHT22;8990;33.226;-97.150;2023-07-13T00:54:05;37.70;99.90
17740;DHT22;8990;33.226;-97.150;2023-07-13T00:56:36;37.70;99.90
17740;DHT22;8990;33.226;-97.150;2023-07-13T00:59:07;37.60;99.90
17740;DHT22;8990;33.226;-97.150;2023-07-13T01:01:37;37.60;99.90
17740;DHT22;8990;33.226;-97.150;2023-07-13T01:04:06;37.60;99.90
17740;DHT22;8990;33.226;-97.150;2023-07-13T01:06:35;37.50;99.90
17740;DHT22;8990;33.226;-97.150;2023-07-13T01:09:08;37.40;99.90
17740;DHT22;8990;33.226;-97.150;2023-07-13T01:11:37;37.40;99.90
17740;DHT22;8990;33.226;-97.150;2023-07-13T01:14:06;37.30;99.90
17740;DHT22;8990;33.226;-97.150;2023-07-13T01:16:37;37.30;99.90
17740;DHT22;8990;33.226;-97.150;2023-07-13T01:19:13;37.20;99.90
17740;DHT22;8990;33.226;-97.150;2023-07-13T01:21:50;37.20;99.90
17740;DHT22;8990;33.226;-97.150;2023-07-13T01:24:20;37.10;99.90
17740;DHT22;8990;33.226;-97.150;2023-07-13T01:26:49;37.20;99.90
17740;DHT22;8990;33.226;-97.150;2023-07-13T01:29:19;37.10;99.90
17740;DHT22;8990;33.226;-97.150;2023-07-13T01:31:48;37.10;99.90
17740;DHT22;8990;33.226;-97.150;2023-07-13T01:34:19;37.00;99.90
17740;DHT22;8990;33.226;-97.150;2023-07-13T01:39:36;37.00;99.90
17740;DHT22;8990;33.226;-97.150;2023-07-13T01:42:05;36.90;99.90
17740;DHT22;8990;33.226;-97.150;2023-07-13T01:44:34;36.90;99.90
17740;DHT22;8990;33.226;-97.150;2023-07-13T01:47:03;36.90;99.90
17740;DHT22;8990;33.226;-97.150;2023-07-13T01:49:33;36.80;99.90
17740;DHT22;8990;33.226;-97.150;2023-07-13T01:52:04;36.80;99.90
17740;DHT22;8990;33.226;-97.150;2023-07-13T01:54:33;36.80;99.90
17740;DHT22;8990;33.226;-97.150;2023-07-13T01:57:02;36.70;99.90
17740;DHT22;8990;33.226;-97.150;2023-07-13T01:59:31;36.60;99.90
17740;DHT22;8990;33.226;-97.150;2023-07-13T02:02:01;36.60;99.90
17740;DHT22;8990;33.226;-97.150;2023-07-13T02:04:29;36.60;99.90
17740;DHT22;8990;33.226;-97.150;2023-07-13T02:06:58;36.50;99.90
17740;DHT22;8990;33.226;-97.150;2023-07-13T02:09:29;36.50;99.90
17740;DHT22;8990;33.226;-97.150;2023-07-13T02:11:58;36.40;99.90
17740;DHT22;8990;33.226;-97.150;2023-07-13T02:14:31;36.40;99.90
17740;DHT22;8990;33.226;-97.150;2023-07-13T02:17:00;36.40;99.90
17740;DHT22;8990;33.226;-97.150;2023-07-13T02:19:29;36.30;99.90
17740;DHT22;8990;33.226;-97.150;2023-07-13T02:21:58;36.30;99.90
17740;DHT22;8990;33.226;-97.150;2023-07-13T02:24:30;36.20;99.90
17740;DHT22;8990;33.226;-97.150;2023-07-13T02:26:59;36.20;99.90
17740;DHT22;8990;33.226;-97.150;2023-07-13T02:29:28;36.10;99.90
17740;DHT22;8990;33.226;-97.150;2023-07-13T02:31:56;36.00;99.90
17740;DHT22;8990;33.226;-97.150;2023-07-13T02:34:26;36.00;99.90
17740;DHT22;8990;33.226;-97.150;2023-07-13T02:36:54;35.90;99.90
17740;DHT22;8990;33.226;-97.150;2023-07-13T02:39:23;35.90;99.90
17740;DHT22;8990;33.226;-97.150;2023-07-13T02:41:54;35.90;99.90
17740;DHT22;8990;33.226;-97.150;2023-07-13T02:44:23;35.80;99.90
17740;DHT22;8990;33.226;-97.150;2023-07-13T02:46:51;35.70;99.90
17740;DHT22;8990;33.226;-97.150;2023-07-13T02:49:20;35.70;99.90
17740;DHT22;8990;33.226;-97.150;2023-07-13T02:51:49;35.60;99.90
17740;DHT22;8990;33.226;-97.150;2023-07-13T02:54:18;35.60;99.90
17740;DHT22;8990;33.226;-97.150;2023-07-13T02:56:47;35.50;99.90
17740;DHT22;8990;33.226;-97.150;2023-07-13T02:59:18;35.50;99.90
17740;DHT22;8990;33.226;-97.150;2023-07-13T03:01:47;35.40;99.90
17740;DHT22;8990;33.226;-97.150;2023-07-13T03:04:16;35.40;99.90
17740;DHT22;8990;33.226;-97.150;2023-07-13T03:06:46;35.30;99.90
17740;DHT22;8990;33.226;-97.150;2023-07-13T03:09:16;35.30;99.90
17740;DHT22;8990;33.226;-97.150;2023-07-13T03:11:53;35.20;99.90
17740;DHT22;8990;33.226;-97.150;2023-07-13T03:14:30;35.10;99.90
17740;DHT22;8990;33.226;-97.150;2023-07-13T03:17:01;35.10;99.90
17740;DHT22;8990;33.226;-97.150;2023-07-13T03:19:34;35.00;99.90
17740;DHT22;8990;33.226;-97.150;2023-07-13T03:22:04;35.00;99.90
17740;DHT22;8990;33.226;-97.150;2023-07-13T03:24:36;35.00;99.90
17740;DHT22;8990;33.226;-97.150;2023-07-13T03:27:07;34.90;99.90
17740;DHT22;8990;33.226;-97.150;2023-07-13T03:29:41;34.90;99.90
17740;DHT22;8990;33.226;-97.150;2023-07-13T03:32:11;34.90;99.90
17740;DHT22;8990;33.226;-97.150;2023-07-13T03:34:40;34.80;99.90
17740;DHT22;8990;33.226;-97.150;2023-07-13T03:37:10;34.70;99.90
17740;DHT22;8990;33.226;-97.150;2023-07-13T03:39:38;34.70;99.90
17740;DHT22;8990;33.226;-97.150;2023-07-13T03:42:07;34.70;99.90
17740;DHT22;8990;33.226;-97.150;2023-07-13T03:44:36;34.70;99.90
17740;DHT22;8990;33.226;-97.150;2023-07-13T03:47:07;34.70;99.90
17740;DHT22;8990;33.226;-97.150;2023-07-13T03:49:36;34.70;99.90
17740;DHT22;8990;33.226;-97.150;2023-07-13T03:52:06;34.70;99.90
17740;DHT22;8990;33.226;-97.150;2023-07-13T03:54:35;34.70;99.90
17740;DHT22;8990;33.226;-97.150;2023-07-13T03:57:04;34.70;99.90
17740;DHT22;8990;33.226;-97.150;2023-07-13T03:59:36;34.60;99.90
17740;DHT22;8990;33.226;-97.150;2023-07-13T04:02:07;34.60;99.90
17740;DHT22;8990;33.226;-97.150;2023-07-13T04:04:36;34.60;99.90
17740;DHT22;8990;33.226;-97.150;2023-07-13T04:07:07;34.60;99.90
17740;DHT22;8990;33.226;-97.150;2023-07-13T04:09:39;34.50;99.90
17740;DHT22;8990;33.226;-97.150;2023-07-13T04:12:10;34.50;99.90
17740;DHT22;8990;33.226;-97.150;2023-07-13T04:14:39;34.50;99.90
17740;DHT22;8990;33.226;-97.150;2023-07-13T04:17:10;34.40;99.90
17740;DHT22;8990;33.226;-97.150;2023-07-13T04:19:39;34.40;99.90
17740;DHT22;8990;33.226;-97.150;2023-07-13T04:22:07;34.40;99.90
17740;DHT22;8990;33.226;-97.150;2023-07-13T04:24:36;34.30;99.90
17740;DHT22;8990;33.226;-97.150;2023-07-13T04:27:06;34.30;99.90
17740;DHT22;8990;33.226;-97.150;2023-07-13T04:29:35;34.30;99.90
17740;DHT22;8990;33.226;-97.150;2023-07-13T04:32:04;34.20;99.90
17740;DHT22;8990;33.226;-97.150;2023-07-13T04:34:35;34.10;99.90
17740;DHT22;8990;33.226;-97.150;2023-07-13T04:37:04;34.10;99.90
17740;DHT22;8990;33.226;-97.150;2023-07-13T04:39:34;34.10;99.90
17740;DHT22;8990;33.226;-97.150;2023-07-13T04:42:03;34.10;99.90
17740;DHT22;8990;33.226;-97.150;2023-07-13T04:44:32;34.10;99.90
17740;DHT22;8990;33.226;-97.150;2023-07-13T04:47:01;34.00;99.90
17740;DHT22;8990;33.226;-97.150;2023-07-13T04:49:30;34.00;99.90
17740;DHT22;8990;33.226;-97.150;2023-07-13T04:52:00;34.00;99.90
17740;DHT22;8990;33.226;-97.150;2023-07-13T04:54:29;34.00;99.90
17740;DHT22;8990;33.226;-97.150;2023-07-13T04:56:58;34.00;99.90
17740;DHT22;8990;33.226;-97.150;2023-07-13T04:59:27;33.90;99.90
17740;DHT22;8990;33.226;-97.150;2023-07-13T05:01:56;33.90;99.90
17740;DHT22;8990;33.226;-97.150;2023-07-13T05:04:26;33.80;99.90
17740;DHT22;8990;33.226;-97.150;2023-07-13T05:06:55;33.80;99.90
17740;DHT22;8990;33.226;-97.150;2023-07-13T05:09:25;33.80;99.90
17740;DHT22;8990;33.226;-97.150;2023-07-13T05:11:54;33.60;99.90
17740;DHT22;8990;33.226;-97.150;2023-07-13T05:14:23;33.50;99.90
17740;DHT22;8990;33.226;-97.150;2023-07-13T05:16:52;33.60;99.90
17740;DHT22;8990;33.226;-97.150;2023-07-13T05:19:21;33.60;99.90
17740;DHT22;8990;33.226;-97.150;2023-07-13T05:21:50;33.60;99.90
17740;DHT22;8990;33.226;-97.150;2023-07-13T05:24:19;33.40;99.90
17740;DHT22;8990;33.226;-97.150;2023-07-13T05:26:50;33.40;99.90
17740;DHT22;8990;33.226;-97.150;2023-07-13T05:29:19;33.40;99.90
17740;DHT22;8990;33.226;-97.150;2023-07-13T05:31:48;33.40;99.90
17740;DHT22;8990;33.226;-97.150;2023-07-13T05:34:16;33.30;99.90
17740;DHT22;8990;33.226;-97.150;2023-07-13T05:36:44;33.30;99.90
17740;DHT22;8990;33.226;-97.150;2023-07-13T05:39:13;33.30;99.90
17740;DHT22;8990;33.226;-97.150;2023-07-13T05:41:42;33.20;99.90
17740;DHT22;8990;33.226;-97.150;2023-07-13T05:44:12;33.20;99.90
17740;DHT22;8990;33.226;-97.150;2023-07-13T05:46:41;33.10;99.90
17740;DHT22;8990;33.226;-97.150;2023-07-13T05:49:12;33.10;99.90
17740;DHT22;8990;33.226;-97.150;2023-07-13T05:51:41;33.10;99.90
17740;DHT22;8990;33.226;-97.150;2023-07-13T05:54:10;33.00;99.90
17740;DHT22;8990;33.226;-97.150;2023-07-13T05:56:39;33.00;99.90
17740;DHT22;8990;33.226;-97.150;2023-07-13T05:59:07;32.90;99.90
17740;DHT22;8990;33.226;-97.150;2023-07-13T06:01:38;32.90;99.90
17740;DHT22;8990;33.226;-97.150;2023-07-13T06:04:07;32.90;99.90
17740;DHT22;8990;33.226;-97.150;2023-07-13T06:06:36;32.90;99.90
17740;DHT22;8990;33.226;-97.150;2023-07-13T06:09:04;32.80;99.90
17740;DHT22;8990;33.226;-97.150;2023-07-13T06:11:34;32.80;99.90
17740;DHT22;8990;33.226;-97.150;2023-07-13T06:14:03;32.80;99.90
17740;DHT22;8990;33.226;-97.150;2023-07-13T06:16:32;32.70;99.90
17740;DHT22;8990;33.226;-97.150;2023-07-13T06:19:02;32.70;99.90
17740;DHT22;8990;33.226;-97.150;2023-07-13T06:21:31;32.60;99.90
17740;DHT22;8990;33.226;-97.150;2023-07-13T06:24:00;32.60;99.90
17740;DHT22;8990;33.226;-97.150;2023-07-13T06:26:29;32.50;99.90
17740;DHT22;8990;33.226;-97.150;2023-07-13T06:28:58;32.40;99.90
17740;DHT22;8990;33.226;-97.150;2023-07-13T06:31:27;32.40;99.90
17740;DHT22;8990;33.226;-97.150;2023-07-13T06:33:56;32.40;99.90
17740;DHT22;8990;33.226;-97.150;2023-07-13T06:36:27;32.30;99.90
17740;DHT22;8990;33.226;-97.150;2023-07-13T06:38:55;32.30;99.90
17740;DHT22;8990;33.226;-97.150;2023-07-13T06:41:24;32.30;99.90
17740;DHT22;8990;33.226;-97.150;2023-07-13T06:43:54;32.30;99.90
17740;DHT22;8990;33.226;-97.150;2023-07-13T06:46:23;32.30;99.90
17740;DHT22;8990;33.226;-97.150;2023-07-13T06:48:53;32.20;99.90
17740;DHT22;8990;33.226;-97.150;2023-07-13T06:51:21;32.20;99.90
17740;DHT22;8990;33.226;-97.150;2023-07-13T06:53:53;32.20;99.90
17740;DHT22;8990;33.226;-97.150;2023-07-13T06:56:22;32.20;99.90
17740;DHT22;8990;33.226;-97.150;2023-07-13T06:58:51;32.10;99.90
17740;DHT22;8990;33.226;-97.150;2023-07-13T07:01:20;32.10;99.90
17740;DHT22;8990;33.226;-97.150;2023-07-13T07:03:49;32.00;99.90
17740;DHT22;8990;33.226;-97.150;2023-07-13T07:06:20;31.90;99.90
17740;DHT22;8990;33.226;-97.150;2023-07-13T07:08:52;31.90;99.90
17740;DHT22;8990;33.226;-97.150;2023-07-13T07:11:23;31.90;99.90
17740;DHT22;8990;33.226;-97.150;2023-07-13T07:13:53;31.80;99.90
17740;DHT22;8990;33.226;-97.150;2023-07-13T07:16:24;31.80;99.90
17740;DHT22;8990;33.226;-97.150;2023-07-13T07:18:53;31.80;99.90
17740;DHT22;8990;33.226;-97.150;2023-07-13T07:21:22;31.70;99.90
17740;DHT22;8990;33.226;-97.150;2023-07-13T07:23:53;31.70;99.90
17740;DHT22;8990;33.226;-97.150;2023-07-13T07:26:22;31.70;99.90
17740;DHT22;8990;33.226;-97.150;2023-07-13T07:28:51;31.70;99.90
17740;DHT22;8990;33.226;-97.150;2023-07-13T07:31:20;31.60;99.90
17740;DHT22;8990;33.226;-97.150;2023-07-13T07:33:49;31.60;99.90
17740;DHT22;8990;33.226;-97.150;2023-07-13T07:36:18;31.60;99.90
17740;DHT22;8990;33.226;-97.150;2023-07-13T07:38:46;31.60;99.90
17740;DHT22;8990;33.226;-97.150;2023-07-13T07:41:17;31.50;99.90
17740;DHT22;8990;33.226;-97.150;2023-07-13T07:43:46;31.50;99.90
17740;DHT22;8990;33.226;-97.150;2023-07-13T07:46:14;31.50;99.90
17740;DHT22;8990;33.226;-97.150;2023-07-13T07:48:44;31.40;99.90
17740;DHT22;8990;33.226;-97.150;2023-07-13T07:51:13;31.40;99.90
17740;DHT22;8990;33.226;-97.150;2023-07-13T07:53:42;31.40;99.90
17740;DHT22;8990;33.226;-97.150;2023-07-13T07:56:11;31.30;99.90
17740;DHT22;8990;33.226;-97.150;2023-07-13T07:58:42;31.30;99.90
17740;DHT22;8990;33.226;-97.150;2023-07-13T08:01:11;31.20;99.90
17740;DHT22;8990;33.226;-97.150;2023-07-13T08:03:40;31.20;99.90
17740;DHT22;8990;33.226;-97.150;2023-07-13T08:06:09;31.10;99.90
17740;DHT22;8990;33.226;-97.150;2023-07-13T08:08:38;31.00;99.90
17740;DHT22;8990;33.226;-97.150;2023-07-13T08:11:08;31.00;99.90
17740;DHT22;8990;33.226;-97.150;2023-07-13T08:13:38;31.00;99.90
17740;DHT22;8990;33.226;-97.150;2023-07-13T08:16:08;31.00;99.90
17740;DHT22;8990;33.226;-97.150;2023-07-13T08:18:38;30.90;99.90
17740;DHT22;8990;33.226;-97.150;2023-07-13T08:21:08;30.90;99.90
17740;DHT22;8990;33.226;-97.150;2023-07-13T08:23:37;30.90;99.90
17740;DHT22;8990;33.226;-97.150;2023-07-13T08:26:06;30.90;99.90
17740;DHT22;8990;33.226;-97.150;2023-07-13T08:28:35;30.80;99.90
17740;DHT22;8990;33.226;-97.150;2023-07-13T08:31:04;30.80;99.90
17740;DHT22;8990;33.226;-97.150;2023-07-13T08:33:36;30.70;99.90
17740;DHT22;8990;33.226;-97.150;2023-07-13T08:36:06;30.80;99.90
17740;DHT22;8990;33.226;-97.150;2023-07-13T08:38:35;30.70;99.90
17740;DHT22;8990;33.226;-97.150;2023-07-13T08:41:12;30.70;99.90
17740;DHT22;8990;33.226;-97.150;2023-07-13T08:43:44;30.60;99.90
17740;DHT22;8990;33.226;-97.150;2023-07-13T08:46:17;30.60;99.90
17740;DHT22;8990;33.226;-97.150;2023-07-13T08:48:51;30.60;99.90
17740;DHT22;8990;33.226;-97.150;2023-07-13T08:51:37;30.60;99.90
17740;DHT22;8990;33.226;-97.150;2023-07-13T08:54:23;30.50;99.90
17740;DHT22;8990;33.226;-97.150;2023-07-13T08:56:54;30.40;99.90
17740;DHT22;8990;33.226;-97.150;2023-07-13T08:59:26;30.40;99.90
17740;DHT22;8990;33.226;-97.150;2023-07-13T09:02:05;30.40;99.90
17740;DHT22;8990;33.226;-97.150;2023-07-13T09:04:42;30.40;99.90
17740;DHT22;8990;33.226;-97.150;2023-07-13T09:07:21;30.40;99.90
17740;DHT22;8990;33.226;-97.150;2023-07-13T09:10:05;30.40;99.90
17740;DHT22;8990;33.226;-97.150;2023-07-13T09:12:46;30.30;99.90
17740;DHT22;8990;33.226;-97.150;2023-07-13T09:15:28;30.30;99.90
17740;DHT22;8990;33.226;-97.150;2023-07-13T09:18:03;30.30;99.90
17740;DHT22;8990;33.226;-97.150;2023-07-13T09:20:36;30.30;99.90
17740;DHT22;8990;33.226;-97.150;2023-07-13T09:23:10;30.20;99.90
17740;DHT22;8990;33.226;-97.150;2023-07-13T09:25:43;30.20;99.90
17740;DHT22;8990;33.226;-97.150;2023-07-13T09:28:16;30.20;99.90
17740;DHT22;8990;33.226;-97.150;2023-07-13T09:30:51;30.20;99.90
17740;DHT22;8990;33.226;-97.150;2023-07-13T09:33:21;30.10;99.90
17740;DHT22;8990;33.226;-97.150;2023-07-13T09:35:52;30.00;99.90
17740;DHT22;8990;33.226;-97.150;2023-07-13T09:38:24;30.00;99.90
17740;DHT22;8990;33.226;-97.150;2023-07-13T09:41:08;30.00;99.90
17740;DHT22;8990;33.226;-97.150;2023-07-13T09:44:09;29.90;99.90
17740;DHT22;8990;33.226;-97.150;2023-07-13T09:46:42;29.90;99.90
17740;DHT22;8990;33.226;-97.150;2023-07-13T09:49:12;29.80;99.90
17740;DHT22;8990;33.226;-97.150;2023-07-13T09:51:43;29.80;99.90
17740;DHT22;8990;33.226;-97.150;2023-07-13T09:54:21;29.80;99.90
17740;DHT22;8990;33.226;-97.150;2023-07-13T09:56:55;29.80;99.90
17740;DHT22;8990;33.226;-97.150;2023-07-13T09:59:32;29.60;99.90
17740;DHT22;8990;33.226;-97.150;2023-07-13T10:02:04;29.70;99.90
17740;DHT22;8990;33.226;-97.150;2023-07-13T10:04:56;29.60;99.90
17740;DHT22;8990;33.226;-97.150;2023-07-13T10:07:30;29.60;99.90
17740;DHT22;8990;33.226;-97.150;2023-07-13T10:10:00;29.60;99.90
17740;DHT22;8990;33.226;-97.150;2023-07-13T10:12:30;29.60;99.90
17740;DHT22;8990;33.226;-97.150;2023-07-13T10:15:13;29.60;99.90
17740;DHT22;8990;33.226;-97.150;2023-07-13T10:17:44;29.50;99.90
17740;DHT22;8990;33.226;-97.150;2023-07-13T10:20:14;29.60;99.90
17740;DHT22;8990;33.226;-97.150;2023-07-13T10:22:49;29.50;99.90
17740;DHT22;8990;33.226;-97.150;2023-07-13T10:25:21;29.50;99.90
17740;DHT22;8990;33.226;-97.150;2023-07-13T10:27:52;29.40;99.90
17740;DHT22;8990;33.226;-97.150;2023-07-13T10:30:23;29.40;99.90
17740;DHT22;8990;33.226;-97.150;2023-07-13T10:32:57;29.30;99.90
17740;DHT22;8990;33.226;-97.150;2023-07-13T10:35:28;29.30;99.90
17740;DHT22;8990;33.226;-97.150;2023-07-13T10:38:02;29.30;99.90
17740;DHT22;8990;33.226;-97.150;2023-07-13T10:40:37;29.30;99.90
17740;DHT22;8990;33.226;-97.150;2023-07-13T10:43:15;29.20;99.90
17740;DHT22;8990;33.226;-97.150;2023-07-13T10:45:47;29.20;99.90
17740;DHT22;8990;33.226;-97.150;2023-07-13T10:48:17;29.20;99.90
17740;DHT22;8990;33.226;-97.150;2023-07-13T10:50:49;29.20;99.90
17740;DHT22;8990;33.226;-97.150;2023-07-13T10:53:28;29.10;99.90
17740;DHT22;8990;33.226;-97.150;2023-07-13T10:56:00;29.10;99.90
17740;DHT22;8990;33.226;-97.150;2023-07-13T10:58:32;29.00;99.90
17740;DHT22;8990;33.226;-97.150;2023-07-13T11:01:09;29.00;99.90
17740;DHT22;8990;33.226;-97.150;2023-07-13T11:03:47;29.10;99.90
17740;DHT22;8990;33.226;-97.150;2023-07-13T11:06:33;29.10;99.90
17740;DHT22;8990;33.226;-97.150;2023-07-13T11:12:07;29.10;99.90
17740;DHT22;8990;33.226;-97.150;2023-07-13T11:15:02;29.10;99.90
17740;DHT22;8990;33.226;-97.150;2023-07-13T11:17:36;29.10;99.90
17740;DHT22;8990;33.226;-97.150;2023-07-13T11:23:20;29.00;99.90
17740;DHT22;8990;33.226;-97.150;2023-07-13T11:25:57;28.90;99.90
17740;DHT22;8990;33.226;-97.150;2023-07-13T11:28:31;28.90;99.90
17740;DHT22;8990;33.226;-97.150;2023-07-13T11:31:13;28.90;99.90
17740;DHT22;8990;33.226;-97.150;2023-07-13T11:33:52;28.80;99.90
17740;DHT22;8990;33.226;-97.150;2023-07-13T11:36:23;28.80;99.90
17740;DHT22;8990;33.226;-97.150;2023-07-13T11:39:00;28.70;99.90
17740;DHT22;8990;33.226;-97.150;2023-07-13T11:41:34;28.70;99.90
17740;DHT22;8990;33.226;-97.150;2023-07-13T11:44:12;28.70;99.90
17740;DHT22;8990;33.226;-97.150;2023-07-13T11:46:46;28.80;99.90
17740;DHT22;8990;33.226;-97.150;2023-07-13T11:49:17;28.80;99.90
17740;DHT22;8990;33.226;-97.150;2023-07-13T11:51:46;28.90;99.90
17740;DHT22;8990;33.226;-97.150;2023-07-13T11:54:25;28.90;99.90
17740;DHT22;8990;33.226;-97.150;2023-07-13T11:57:02;28.90;99.90
17740;DHT22;8990;33.226;-97.150;2023-07-13T11:59:39;28.80;99.90
17740;DHT22;8990;33.226;-97.150;2023-07-13T12:02:17;28.80;99.90
17740;DHT22;8990;33.226;-97.150;2023-07-13T12:04:47;28.80;99.90
17740;DHT22;8990;33.226;-97.150;2023-07-13T12:07:18;28.80;99.90
17740;DHT22;8990;33.226;-97.150;2023-07-13T12:09:47;28.80;99.90
17740;DHT22;8990;33.226;-97.150;2023-07-13T12:12:21;28.80;99.90
17740;DHT22;8990;33.226;-97.150;2023-07-13T12:14:52;28.70;99.90
17740;DHT22;8990;33.226;-97.150;2023-07-13T12:17:23;28.60;99.90
17740;DHT22;8990;33.226;-97.150;2023-07-13T12:19:52;28.70;99.90
17740;DHT22;8990;33.226;-97.150;2023-07-13T12:22:21;28.70;99.90
17740;DHT22;8990;33.226;-97.150;2023-07-13T12:24:52;28.80;99.90
17740;DHT22;8990;33.226;-97.150;2023-07-13T12:27:24;28.90;99.90
17740;DHT22;8990;33.226;-97.150;2023-07-13T12:29:58;28.90;99.90
17740;DHT22;8990;33.226;-97.150;2023-07-13T12:32:28;29.00;99.90
17740;DHT22;8990;33.226;-97.150;2023-07-13T12:35:12;29.00;99.90
17740;DHT22;8990;33.226;-97.150;2023-07-13T12:37:42;28.90;99.90
17740;DHT22;8990;33.226;-97.150;2023-07-13T12:40:15;28.90;99.90
17740;DHT22;8990;33.226;-97.150;2023-07-13T12:42:48;28.90;99.90
17740;DHT22;8990;33.226;-97.150;2023-07-13T12:45:21;28.90;99.90
17740;DHT22;8990;33.226;-97.150;2023-07-13T12:47:56;28.90;99.90
17740;DHT22;8990;33.226;-97.150;2023-07-13T12:50:30;28.90;99.90
17740;DHT22;8990;33.226;-97.150;2023-07-13T12:53:05;28.90;99.90
17740;DHT22;8990;33.226;-97.150;2023-07-13T12:55:42;29.00;99.90
17740;DHT22;8990;33.226;-97.150;2023-07-13T12:58:21;28.90;99.90
17740;DHT22;8990;33.226;-97.150;2023-07-13T13:00:51;28.90;99.90
17740;DHT22;8990;33.226;-97.150;2023-07-13T13:03:25;28.90;99.90
17740;DHT22;8990;33.226;-97.150;2023-07-13T13:06:00;28.90;99.90
17740;DHT22;8990;33.226;-97.150;2023-07-13T13:08:33;29.00;99.90
17740;DHT22;8990;33.226;-97.150;2023-07-13T13:11:03;28.90;99.90
17740;DHT22;8990;33.226;-97.150;2023-07-13T13:13:33;28.90;99.90
17740;DHT22;8990;33.226;-97.150;2023-07-13T13:16:04;28.80;99.90
17740;DHT22;8990;33.226;-97.150;2023-07-13T13:18:33;28.90;99.90
17740;DHT22;8990;33.226;-97.150;2023-07-13T13:21:02;28.80;99.90
17740;DHT22;8990;33.226;-97.150;2023-07-13T13:23:32;28.80;99.90
17740;DHT22;8990;33.226;-97.150;2023-07-13T13:26:00;28.80;99.90
17740;DHT22;8990;33.226;-97.150;2023-07-13T13:28:32;28.80;99.90
17740;DHT22;8990;33.226;-97.150;2023-07-13T13:31:01;28.70;99.90
17740;DHT22;8990;33.226;-97.150;2023-07-13T13:33:30;28.60;99.90
17740;DHT22;8990;33.226;-97.150;2023-07-13T13:35:59;28.60;99.90
17740;DHT22;8990;33.226;-97.150;2023-07-13T13:38:28;28.70;99.90
17740;DHT22;8990;33.226;-97.150;2023-07-13T13:40:57;28.60;99.90
17740;DHT22;8990;33.226;-97.150;2023-07-13T13:43:26;28.60;99.90
17740;DHT22;8990;33.226;-97.150;2023-07-13T13:45:59;28.70;99.90
17740;DHT22;8990;33.226;-97.150;2023-07-13T13:48:31;28.80;99.90
17740;DHT22;8990;33.226;-97.150;2023-07-13T13:51:03;29.00;99.90
17740;DHT22;8990;33.226;-97.150;2023-07-13T13:53:34;29.20;99.90
17740;DHT22;8990;33.226;-97.150;2023-07-13T13:56:04;29.40;99.90
17740;DHT22;8990;33.226;-97.150;2023-07-13T13:58:33;29.60;99.90
17740;DHT22;8990;33.226;-97.150;2023-07-13T14:01:04;29.80;99.90
17740;DHT22;8990;33.226;-97.150;2023-07-13T14:03:35;29.80;99.90
17740;DHT22;8990;33.226;-97.150;2023-07-13T14:06:04;29.70;99.90
17740;DHT22;8990;33.226;-97.150;2023-07-13T14:08:32;29.70;99.90
17740;DHT22;8990;33.226;-97.150;2023-07-13T14:11:01;29.70;99.90
17740;DHT22;8990;33.226;-97.150;2023-07-13T14:13:33;29.80;99.90
17740;DHT22;8990;33.226;-97.150;2023-07-13T14:16:08;30.00;99.90
17740;DHT22;8990;33.226;-97.150;2023-07-13T14:18:38;30.00;99.90
17740;DHT22;8990;33.226;-97.150;2023-07-13T14:21:12;30.20;99.90
17740;DHT22;8990;33.226;-97.150;2023-07-13T14:23:42;30.30;99.90
17740;DHT22;8990;33.226;-97.150;2023-07-13T14:26:13;30.20;99.90
17740;DHT22;8990;33.226;-97.150;2023-07-13T14:28:44;30.10;99.90
17740;DHT22;8990;33.226;-97.150;2023-07-13T14:31:17;30.10;99.90
17740;DHT22;8990;33.226;-97.150;2023-07-13T14:33:46;30.00;99.90
17740;DHT22;8990;33.226;-97.150;2023-07-13T14:36:26;29.90;99.90
17740;DHT22;8990;33.226;-97.150;2023-07-13T14:38:56;29.80;99.90
17740;DHT22;8990;33.226;-97.150;2023-07-13T14:41:26;29.80;99.90
17740;DHT22;8990;33.226;-97.150;2023-07-13T14:43:55;29.70;99.90
17740;DHT22;8990;33.226;-97.150;2023-07-13T14:46:28;29.80;99.90
17740;DHT22;8990;33.226;-97.150;2023-07-13T14:49:02;29.90;99.90
17740;DHT22;8990;33.226;-97.150;2023-07-13T14:51:32;29.90;99.90
17740;DHT22;8990;33.226;-97.150;2023-07-13T14:54:03;29.90;99.90
17740;DHT22;8990;33.226;-97.150;2023-07-13T14:56:33;29.90;99.90
17740;DHT22;8990;33.226;-97.150;2023-07-13T14:59:01;29.70;99.90
17740;DHT22;8990;33.226;-97.150;2023-07-13T15:01:33;29.70;99.90
17740;DHT22;8990;33.226;-97.150;2023-07-13T15:04:02;29.90;99.90
17740;DHT22;8990;33.226;-97.150;2023-07-13T15:06:55;30.20;99.90
17740;DHT22;8990;33.226;-97.150;2023-07-13T15:09:24;30.40;99.90
17740;DHT22;8990;33.226;-97.150;2023-07-13T15:11:54;30.60;99.90
17740;DHT22;8990;33.226;-97.150;2023-07-13T15:14:23;30.70;99.90
17740;DHT22;8990;33.226;-97.150;2023-07-13T15:16:55;30.90;99.90
17740;DHT22;8990;33.226;-97.150;2023-07-13T15:19:25;31.10;99.90
17740;DHT22;8990;33.226;-97.150;2023-07-13T15:21:57;31.20;99.90
17740;DHT22;8990;33.226;-97.150;2023-07-13T15:24:26;31.40;99.90
17740;DHT22;8990;33.226;-97.150;2023-07-13T15:26:55;31.50;99.90
17740;DHT22;8990;33.226;-97.150;2023-07-13T15:29:24;31.60;99.90
17740;DHT22;8990;33.226;-97.150;2023-07-13T15:31:54;31.60;99.90
17740;DHT22;8990;33.226;-97.150;2023-07-13T15:34:25;31.70;99.90
17740;DHT22;8990;33.226;-97.150;2023-07-13T15:36:55;31.90;99.90
17740;DHT22;8990;33.226;-97.150;2023-07-13T15:39:24;32.00;99.90
17740;DHT22;8990;33.226;-97.150;2023-07-13T15:41:53;32.00;99.90
17740;DHT22;8990;33.226;-97.150;2023-07-13T15:44:27;32.10;99.90
17740;DHT22;8990;33.226;-97.150;2023-07-13T15:46:59;32.20;99.90
17740;DHT22;8990;33.226;-97.150;2023-07-13T15:49:29;31.90;99.90